Pallada — UDUI — position and weather

sailwx.info

Track history (hours):
 
Tides and Currents Weather Stations Pressure Air Temp Water Temp Dewpoint Dewpoint Depression Visibility Wind Speed Wind Dir Waves Ship Positions

Pallada

Last reported at 2016-Feb-29 11:33 UTC. Time now 2016-May-06 22:36 UTC.
Position N 38°44' E 121°55'.
Warning: this ship's position is months out of date.

Length 109 m; draft 6.8 m.

Type: Sailing vessel. MMSI: 273815200.

Date/timePositionNaut miles runAvg speedWind from/ knotsBaromVisibWave heightAir tempDewpointWater temp
2016-Feb-29 11:33N 38°44' E 121°55'8 8.1
2016-Feb-29 10:33N 38°50' E 121°47'8 7.3
2016-Feb-29 09:25N 38°56' E 121°41'1 0.2
2016-Feb-29 04:23N 38°56' E 121°39'0 0.0
2016-Feb-29 03:17N 38°56' E 121°39'0 0.0
2016-Feb-29 02:23N 38°56' E 121°39'0 0.0
2016-Feb-28 23:23N 38°56' E 121°39'0 0.0
2016-Feb-28 22:11N 38°56' E 121°39'0 0.0
2016-Feb-28 20:10N 38°56' E 121°39'0 0.0
2016-Feb-28 18:04N 38°56' E 121°39'0 0.0
2016-Feb-28 13:33N 38°56' E 121°39'0 0.0
2016-Feb-28 11:33N 38°56' E 121°39'0 0.0
2016-Feb-28 04:15N 38°56' E 121°39'0 0.0
2016-Feb-27 03:30N 38°56' E 121°39'0 0.0
2016-Feb-27 02:12N 38°56' E 121°39'0 0.0
2016-Feb-27 00:33N 38°56' E 121°39'0 0.0
2016-Feb-26 07:27N 38°56' E 121°39'0 0.0
2016-Feb-26 04:30N 38°56' E 121°39'0 0.3
2016-Feb-26 03:22N 38°56' E 121°39'6 5.9
2016-Feb-26 02:24N 38°54' E 121°47'4 5.1
2016-Feb-26 01:33N 38°50' E 121°48'6 6.1
2016-Feb-26 00:33N 38°47' E 121°54'  
Track history (hours):
 
Tides and Currents Weather Stations Pressure Air Temp Water Temp Dewpoint Dewpoint Depression Visibility Wind Speed Wind Dir Waves Ship Positions

Pallada

Last reported at 2016-Feb-29 11:33 UTC. Time now 2016-May-06 22:36 UTC.
Position N 38°44' E 121°55'.
Warning: this ship's position is months out of date.

Length 109 m; draft 6.8 m.

Type: Sailing vessel. MMSI: 273815200.

Date/timePositionNaut miles runAvg speedWind from/ knotsBaromVisibWave heightAir tempDewpointWater temp
2016-Feb-29 11:33N 38°44' E 121°55'8 8.1
2016-Feb-29 10:33N 38°50' E 121°47'8 7.3
2016-Feb-29 09:25N 38°56' E 121°41'1 0.2
2016-Feb-29 04:23N 38°56' E 121°39'0 0.0
2016-Feb-29 03:17N 38°56' E 121°39'0 0.0
2016-Feb-29 02:23N 38°56' E 121°39'0 0.0
2016-Feb-28 23:23N 38°56' E 121°39'0 0.0
2016-Feb-28 22:11N 38°56' E 121°39'0 0.0
2016-Feb-28 20:10N 38°56' E 121°39'0 0.0
2016-Feb-28 18:04N 38°56' E 121°39'0 0.0
2016-Feb-28 13:33N 38°56' E 121°39'0 0.0
2016-Feb-28 11:33N 38°56' E 121°39'0 0.0
2016-Feb-28 04:15N 38°56' E 121°39'0 0.0
2016-Feb-27 03:30N 38°56' E 121°39'0 0.0
2016-Feb-27 02:12N 38°56' E 121°39'0 0.0
2016-Feb-27 00:33N 38°56' E 121°39'0 0.0
2016-Feb-26 07:27N 38°56' E 121°39'0 0.0
2016-Feb-26 04:30N 38°56' E 121°39'0 0.3
2016-Feb-26 03:22N 38°56' E 121°39'6 5.9
2016-Feb-26 02:24N 38°54' E 121°47'4 5.1
2016-Feb-26 01:33N 38°50' E 121°48'6 6.1
2016-Feb-26 00:33N 38°47' E 121°54'  

Dump ship's entire track history